createdAt,value
2023-03-17T00:00:08.922Z,48.02
2023-03-17T00:01:08.787Z,48.66
2023-03-17T00:02:08.245Z,47.86
2023-03-17T00:03:08.817Z,48.50
2023-03-17T00:04:08.858Z,48.02
2023-03-17T00:05:08.757Z,47.86
2023-03-17T00:06:08.958Z,48.50
2023-03-17T00:07:08.722Z,47.86
2023-03-17T00:08:08.808Z,48.34
2023-03-17T00:09:08.934Z,48.02
2023-03-17T00:10:08.888Z,48.02
2023-03-17T00:11:08.820Z,48.50
2023-03-17T00:12:08.780Z,48.50
2023-03-17T00:13:08.780Z,48.34
2023-03-17T00:14:08.562Z,48.34
2023-03-17T00:15:08.760Z,47.53
2023-03-17T00:16:08.675Z,48.34
2023-03-17T00:17:08.829Z,48.18
2023-03-17T00:18:08.535Z,48.50
2023-03-17T00:19:09.143Z,48.18
2023-03-17T00:20:08.668Z,48.34
2023-03-17T00:21:08.730Z,48.18
2023-03-17T00:22:08.679Z,48.34
2023-03-17T00:23:08.717Z,48.02
2023-03-17T00:24:08.688Z,48.34
2023-03-17T00:25:08.637Z,48.18
2023-03-17T00:26:08.638Z,48.18
2023-03-17T00:27:08.667Z,51.88
2023-03-17T00:28:08.591Z,48.18
2023-03-17T00:29:08.581Z,48.34
2023-03-17T00:30:08.569Z,48.18
2023-03-17T00:31:08.466Z,48.66
2023-03-17T00:32:08.597Z,48.50
2023-03-17T00:33:08.408Z,48.18
2023-03-17T00:34:08.555Z,48.02
2023-03-17T00:35:08.427Z,48.50
2023-03-17T00:36:08.689Z,48.50
2023-03-17T00:37:08.498Z,48.18
2023-03-17T00:38:08.677Z,48.50
2023-03-17T00:39:08.389Z,48.34
2023-03-17T00:40:08.527Z,48.50
2023-03-17T00:41:08.487Z,48.66
2023-03-17T00:42:08.634Z,48.66
2023-03-17T00:43:08.497Z,48.66
2023-03-17T00:44:08.615Z,48.34
2023-03-17T00:45:08.455Z,48.98
2023-03-17T00:46:08.223Z,48.34
2023-03-17T00:47:08.550Z,48.34
2023-03-17T00:48:08.374Z,48.50
2023-03-17T00:49:08.385Z,48.50
2023-03-17T00:50:08.218Z,48.18
2023-03-17T00:51:08.561Z,48.34
2023-03-17T00:52:08.419Z,48.34
2023-03-17T00:53:08.405Z,48.34
2023-03-17T00:54:08.235Z,48.34
2023-03-17T00:55:08.364Z,50.11
2023-03-17T00:56:08.455Z,48.18
2023-03-17T00:57:08.374Z,48.66
2023-03-17T00:58:08.307Z,48.82
2023-03-17T00:59:08.315Z,48.02
2023-03-17T01:00:08.271Z,48.18
2023-03-17T01:01:08.155Z,48.02
2023-03-17T01:02:08.482Z,48.34
2023-03-17T01:03:08.293Z,48.18
2023-03-17T01:04:08.235Z,48.66
2023-03-17T01:05:08.204Z,48.50
2023-03-17T01:06:08.215Z,48.18
2023-03-17T01:07:08.045Z,48.18
2023-03-17T01:08:08.434Z,48.50
2023-03-17T01:09:08.592Z,48.18
2023-03-17T01:10:08.284Z,48.18
2023-03-17T01:11:08.104Z,48.18
2023-03-17T01:12:08.214Z,48.18
2023-03-17T01:13:08.144Z,48.18
2023-03-17T01:14:08.252Z,48.18
2023-03-17T01:15:08.086Z,48.50
2023-03-17T01:16:08.271Z,48.18
2023-03-17T01:17:08.652Z,48.82
2023-03-17T01:18:07.911Z,48.34
2023-03-17T01:19:08.153Z,48.02
2023-03-17T01:20:07.991Z,49.47
2023-03-17T01:21:08.064Z,49.63
2023-03-17T01:22:07.896Z,49.79
2023-03-17T01:23:08.050Z,49.79
2023-03-17T01:24:07.964Z,49.95
2023-03-17T01:25:08.064Z,48.02
2023-03-17T01:26:07.981Z,48.34
2023-03-17T01:27:08.042Z,48.18
2023-03-17T01:28:08.064Z,48.02
2023-03-17T01:29:08.085Z,48.18
2023-03-17T01:30:08.023Z,48.18
2023-03-17T01:31:08.013Z,48.18
2023-03-17T01:32:08.014Z,48.02
2023-03-17T01:33:07.786Z,48.02
2023-03-17T01:34:07.946Z,48.02
2023-03-17T01:35:07.848Z,48.18
2023-03-17T01:36:08.076Z,47.05
2023-03-17T01:37:07.927Z,48.18
2023-03-17T01:38:07.939Z,47.86
2023-03-17T01:39:07.894Z,48.18
2023-03-17T01:40:08.649Z,48.50
2023-03-17T01:41:07.766Z,48.18
2023-03-17T01:42:08.350Z,48.50
2023-03-17T01:43:07.825Z,48.18
2023-03-17T01:44:07.845Z,47.86
2023-03-17T01:45:07.844Z,47.86
2023-03-17T01:46:07.997Z,48.18
2023-03-17T01:47:07.964Z,48.02
2023-03-17T01:48:07.835Z,48.34
2023-03-17T01:49:07.788Z,47.86
2023-03-17T01:50:07.822Z,48.02
2023-03-17T01:51:07.736Z,48.34
2023-03-17T01:52:07.652Z,47.86
2023-03-17T01:53:07.867Z,48.02
2023-03-17T01:54:07.645Z,48.50
2023-03-17T01:55:07.890Z,48.02
2023-03-17T01:56:07.625Z,48.18
2023-03-17T01:57:08.146Z,48.34
2023-03-17T01:58:07.664Z,48.02
2023-03-17T01:59:07.709Z,48.18
2023-03-17T02:00:07.661Z,48.34
2023-03-17T02:01:08.398Z,48.18
2023-03-17T02:02:07.799Z,48.02
2023-03-17T02:03:07.879Z,46.57
2023-03-17T02:04:07.611Z,48.02
2023-03-17T02:05:07.536Z,48.50
2023-03-17T02:06:07.618Z,48.02
2023-03-17T02:07:07.451Z,48.02
2023-03-17T02:08:07.623Z,48.18
2023-03-17T02:09:07.455Z,48.18
2023-03-17T02:10:07.643Z,48.18
2023-03-17T02:11:07.703Z,48.18
2023-03-17T02:12:07.567Z,48.18
2023-03-17T02:13:07.506Z,48.34
2023-03-17T02:14:07.623Z,48.34
2023-03-17T02:15:07.514Z,48.34
2023-03-17T02:16:07.583Z,48.18
2023-03-17T02:17:07.487Z,48.18
2023-03-17T02:18:07.676Z,48.18
2023-03-17T02:19:07.446Z,48.18
2023-03-17T02:20:07.586Z,48.18
2023-03-17T02:21:07.463Z,48.50
2023-03-17T02:22:07.264Z,46.57
2023-03-17T02:23:07.465Z,47.86
2023-03-17T02:24:07.392Z,48.34
2023-03-17T02:25:07.433Z,48.02
2023-03-17T02:26:07.392Z,48.34
2023-03-17T02:27:07.457Z,48.34
2023-03-17T02:28:07.266Z,48.02
2023-03-17T02:29:07.564Z,48.18
2023-03-17T02:30:06.714Z,48.66
2023-03-17T02:31:07.556Z,48.18
2023-03-17T02:32:07.366Z,48.50
2023-03-17T02:33:07.403Z,48.50
2023-03-17T02:34:07.298Z,48.82
2023-03-17T02:35:07.414Z,48.50
2023-03-17T02:36:07.430Z,48.34
2023-03-17T02:37:07.184Z,48.34
2023-03-17T02:38:07.377Z,48.34
2023-03-17T02:39:07.096Z,48.34
2023-03-17T02:40:07.262Z,48.50
2023-03-17T02:41:07.217Z,48.18
2023-03-17T02:42:07.358Z,48.18
2023-03-17T02:43:07.136Z,48.66
2023-03-17T02:44:06.480Z,48.34
2023-03-17T02:45:07.103Z,49.15
2023-03-17T02:46:07.297Z,48.66
2023-03-17T02:47:07.212Z,48.34
2023-03-17T02:48:07.307Z,48.18
2023-03-17T02:49:07.126Z,48.02
2023-03-17T02:50:07.219Z,50.43
2023-03-17T02:51:07.331Z,48.50
2023-03-17T02:52:06.678Z,49.63
2023-03-17T02:53:07.188Z,49.31
2023-03-17T02:54:07.004Z,48.50
2023-03-17T02:55:07.180Z,48.50
2023-03-17T02:56:06.930Z,48.34
2023-03-17T02:57:07.250Z,48.50
2023-03-17T02:58:06.980Z,49.31
2023-03-17T02:59:07.700Z,51.08
2023-03-17T03:00:07.112Z,48.50
2023-03-17T03:01:07.104Z,49.79
2023-03-17T03:02:07.057Z,48.34
2023-03-17T03:03:07.180Z,48.98
2023-03-17T03:04:07.045Z,48.02
2023-03-17T03:05:07.052Z,48.34
2023-03-17T03:06:06.959Z,48.50
2023-03-17T03:07:07.040Z,48.34
2023-03-17T03:08:07.050Z,48.82
2023-03-17T03:09:06.871Z,48.50
2023-03-17T03:10:06.987Z,48.82
2023-03-17T03:11:06.844Z,48.50
2023-03-17T03:12:07.010Z,48.50
2023-03-17T03:13:06.890Z,48.82
2023-03-17T03:14:06.946Z,48.34
2023-03-17T03:15:06.980Z,48.50
2023-03-17T03:16:06.979Z,48.50
2023-03-17T03:17:06.784Z,48.34
2023-03-17T03:18:07.005Z,48.34
2023-03-17T03:19:06.950Z,48.50
2023-03-17T03:20:07.059Z,48.34
2023-03-17T03:21:06.899Z,48.50
2023-03-17T03:22:07.031Z,48.98
2023-03-17T03:23:06.892Z,49.63
2023-03-17T03:24:06.934Z,49.47
2023-03-17T03:25:06.831Z,48.66
2023-03-17T03:26:06.682Z,48.66
2023-03-17T03:27:06.852Z,48.66
2023-03-17T03:28:06.773Z,48.34
2023-03-17T03:29:06.868Z,48.50
2023-03-17T03:30:06.666Z,48.98
2023-03-17T03:31:06.922Z,48.34
2023-03-17T03:32:06.652Z,48.34
2023-03-17T03:33:06.900Z,48.50
2023-03-17T03:34:06.641Z,48.66
2023-03-17T03:35:06.842Z,50.11
2023-03-17T03:36:06.672Z,48.66
2023-03-17T03:37:06.728Z,48.50
2023-03-17T03:38:06.852Z,48.50
2023-03-17T03:39:06.883Z,48.18
2023-03-17T03:40:06.641Z,48.66
2023-03-17T03:41:06.477Z,48.82
2023-03-17T03:42:06.717Z,48.50
2023-03-17T03:43:16.329Z,50.11
2023-03-17T03:44:06.618Z,47.86
2023-03-17T03:45:06.589Z,48.50
2023-03-17T03:46:06.695Z,48.34
2023-03-17T03:47:06.497Z,48.50
2023-03-17T03:48:06.599Z,48.50
2023-03-17T03:49:06.617Z,49.15
2023-03-17T03:50:06.587Z,49.31
2023-03-17T03:51:06.516Z,48.50
2023-03-17T03:52:06.688Z,48.66
2023-03-17T03:53:06.540Z,48.66
2023-03-17T03:54:06.641Z,48.50
2023-03-17T03:55:06.456Z,48.66
2023-03-17T03:56:06.728Z,48.34
2023-03-17T03:57:06.451Z,48.82
2023-03-17T03:58:06.326Z,48.50
2023-03-17T03:59:06.546Z,48.66
2023-03-17T04:00:06.325Z,55.59
2023-03-17T04:01:06.512Z,51.24
2023-03-17T04:02:09.311Z,48.82
2023-03-17T04:03:06.550Z,48.98
2023-03-17T04:04:06.556Z,48.34
2023-03-17T04:05:06.985Z,49.31
2023-03-17T04:06:06.378Z,48.82
2023-03-17T04:07:06.475Z,49.15
2023-03-17T04:08:06.335Z,49.15
2023-03-17T04:09:06.454Z,48.82
2023-03-17T04:10:06.544Z,48.50
2023-03-17T04:11:06.444Z,48.82
2023-03-17T04:12:06.385Z,49.63
2023-03-17T04:13:06.206Z,49.47
2023-03-17T04:14:06.435Z,48.82
2023-03-17T04:15:06.406Z,50.76
2023-03-17T04:16:06.409Z,48.82
2023-03-17T04:17:06.195Z,49.47
2023-03-17T04:18:06.378Z,49.47
2023-03-17T04:19:06.255Z,49.31
2023-03-17T04:20:06.484Z,49.31
2023-03-17T04:21:06.266Z,49.31
2023-03-17T04:22:06.438Z,48.98
2023-03-17T04:23:06.359Z,48.50
2023-03-17T04:24:06.254Z,49.63
2023-03-17T04:25:06.155Z,50.92
2023-03-17T04:26:06.293Z,50.43
2023-03-17T04:27:06.404Z,48.98
2023-03-17T04:28:05.502Z,49.31
2023-03-17T04:29:06.164Z,51.72
2023-03-17T04:30:06.031Z,49.47
2023-03-17T04:31:06.217Z,49.47
2023-03-17T04:32:06.148Z,48.50
2023-03-17T04:33:06.223Z,48.66
2023-03-17T04:34:06.037Z,47.86
2023-03-17T04:35:06.335Z,48.66
2023-03-17T04:36:06.237Z,48.82
2023-03-17T04:37:06.386Z,49.47
2023-03-17T04:38:06.564Z,48.98
2023-03-17T04:39:06.128Z,54.62
2023-03-17T04:40:06.069Z,50.11
2023-03-17T04:41:06.223Z,49.15
2023-03-17T04:42:06.063Z,50.11
2023-03-17T04:43:06.203Z,48.82
2023-03-17T04:44:05.997Z,48.98
2023-03-17T04:45:05.926Z,49.15
2023-03-17T04:46:06.074Z,48.66
2023-03-17T04:47:06.004Z,49.79
2023-03-17T04:48:06.103Z,51.72
2023-03-17T04:49:05.924Z,62.68
2023-03-17T04:50:06.137Z,49.47
2023-03-17T04:51:05.947Z,49.47
2023-03-17T04:52:06.004Z,49.63
2023-03-17T04:53:05.846Z,49.15
2023-03-17T04:54:05.992Z,50.92
2023-03-17T04:55:05.868Z,49.47
2023-03-17T04:56:06.015Z,49.31
2023-03-17T04:57:05.978Z,50.60
2023-03-17T04:58:05.915Z,49.95
2023-03-17T04:59:05.895Z,50.27
2023-03-17T05:00:05.906Z,50.27
2023-03-17T05:01:05.983Z,50.92
2023-03-17T05:02:05.758Z,52.69
2023-03-17T05:03:16.745Z,63.00
2023-03-17T05:04:05.706Z,50.92
2023-03-17T05:05:05.904Z,50.92
2023-03-17T05:06:05.818Z,58.65
2023-03-17T05:07:06.004Z,52.37
2023-03-17T05:08:05.706Z,52.21
2023-03-17T05:09:05.862Z,53.01
2023-03-17T05:10:05.712Z,49.79
2023-03-17T05:11:05.805Z,49.79
2023-03-17T05:12:05.765Z,49.95
2023-03-17T05:13:05.856Z,62.20
2023-03-17T05:14:05.719Z,54.46
2023-03-17T05:15:05.941Z,57.69
2023-03-17T05:16:05.725Z,49.31
2023-03-17T05:17:05.747Z,49.47
2023-03-17T05:18:05.868Z,49.63
2023-03-17T05:19:05.611Z,49.47
2023-03-17T05:20:05.719Z,51.88
2023-03-17T05:21:05.600Z,49.31
2023-03-17T05:22:05.756Z,49.15
2023-03-17T05:23:05.636Z,49.31
2023-03-17T05:24:05.644Z,50.43
2023-03-17T05:25:05.596Z,51.56
2023-03-17T05:26:05.686Z,50.27
2023-03-17T05:27:05.606Z,49.31
2023-03-17T05:28:05.694Z,54.62
2023-03-17T05:29:05.669Z,50.11
2023-03-17T05:30:04.850Z,50.76
2023-03-17T05:31:05.600Z,53.33
2023-03-17T05:32:06.611Z,51.88
2023-03-17T05:33:06.337Z,50.11
2023-03-17T05:34:05.426Z,52.69
2023-03-17T05:35:05.674Z,50.92
2023-03-17T05:36:05.890Z,51.56
2023-03-17T05:37:05.696Z,50.11
2023-03-17T05:38:05.525Z,49.95
2023-03-17T05:39:05.575Z,50.43
2023-03-17T05:40:05.465Z,50.11
2023-03-17T05:41:05.643Z,51.08
2023-03-17T05:42:05.426Z,49.79
2023-03-17T05:43:05.496Z,52.69
2023-03-17T05:44:05.393Z,60.42
2023-03-17T05:45:05.528Z,59.46
2023-03-17T05:46:05.483Z,59.78
2023-03-17T05:47:05.480Z,61.23
2023-03-17T05:48:05.602Z,59.46
2023-03-17T05:49:05.636Z,59.46
2023-03-17T05:50:05.698Z,59.78
2023-03-17T05:51:06.139Z,58.97
2023-03-17T05:52:05.465Z,61.87
2023-03-17T05:53:05.333Z,58.97
2023-03-17T05:54:05.605Z,61.39
2023-03-17T05:55:05.360Z,66.55
2023-03-17T05:56:05.415Z,61.71
2023-03-17T05:57:05.336Z,73.48
2023-03-17T05:58:05.581Z,75.73
2023-03-17T05:59:06.145Z,80.89
2023-03-17T06:00:05.332Z,69.77
2023-03-17T06:01:05.226Z,64.45
2023-03-17T06:02:05.512Z,81.53
2023-03-17T06:03:05.288Z,63.65
2023-03-17T06:04:05.479Z,65.10
2023-03-17T06:05:05.258Z,70.74
2023-03-17T06:06:05.436Z,77.02
2023-03-17T06:07:05.206Z,65.74
2023-03-17T06:08:05.201Z,61.87
2023-03-17T06:09:05.200Z,62.36
2023-03-17T06:10:05.158Z,64.94
2023-03-17T06:11:05.181Z,61.39
2023-03-17T06:12:05.159Z,69.13
2023-03-17T06:13:05.207Z,72.67
2023-03-17T06:14:05.104Z,82.18
2023-03-17T06:15:05.239Z,58.65
2023-03-17T06:16:05.243Z,60.42
2023-03-17T06:17:05.176Z,61.71
2023-03-17T06:18:05.217Z,62.04
2023-03-17T06:19:05.357Z,55.43
2023-03-17T06:20:05.067Z,59.78
2023-03-17T06:21:05.222Z,60.42
2023-03-17T06:22:05.032Z,62.52
2023-03-17T06:23:06.019Z,65.90
2023-03-17T06:24:05.071Z,63.81
2023-03-17T06:25:05.158Z,65.90
2023-03-17T06:26:05.159Z,64.78
2023-03-17T06:27:04.925Z,66.71
2023-03-17T06:28:05.211Z,72.67
2023-03-17T06:29:04.955Z,66.06
2023-03-17T06:30:05.187Z,67.84
2023-03-17T06:31:07.223Z,68.32
2023-03-17T06:32:19.264Z,72.99
2023-03-17T06:33:05.009Z,66.55
2023-03-17T06:34:05.397Z,66.39
2023-03-17T06:35:04.952Z,63.97
2023-03-17T06:36:05.079Z,63.65
2023-03-17T06:37:04.907Z,64.29
2023-03-17T06:38:04.717Z,62.68
2023-03-17T06:39:04.948Z,63.00
2023-03-17T06:40:04.702Z,64.61
2023-03-17T06:41:05.031Z,64.29
2023-03-17T06:42:06.279Z,62.36
2023-03-17T06:43:04.900Z,62.20
2023-03-17T06:44:04.773Z,72.99
2023-03-17T06:45:04.868Z,62.68
2023-03-17T06:46:04.922Z,64.13
2023-03-17T06:47:04.915Z,66.55
2023-03-17T06:48:04.974Z,64.94
2023-03-17T06:49:04.906Z,60.42
2023-03-17T06:50:04.825Z,62.84
2023-03-17T06:51:04.873Z,62.36
2023-03-17T06:52:04.749Z,68.00
2023-03-17T06:53:04.615Z,63.49
2023-03-17T06:54:04.736Z,65.58
2023-03-17T06:55:04.577Z,73.15
2023-03-17T06:56:04.847Z,63.49
2023-03-17T06:57:04.599Z,61.87
2023-03-17T06:58:04.821Z,63.16
2023-03-17T06:59:05.306Z,63.49
2023-03-17T07:00:05.674Z,63.49
2023-03-17T07:01:04.639Z,60.59
2023-03-17T07:02:04.674Z,70.42
2023-03-17T07:03:04.650Z,63.33
2023-03-17T07:04:04.735Z,62.20
2023-03-17T07:05:04.636Z,63.49
2023-03-17T07:06:04.825Z,60.26
2023-03-17T07:07:04.606Z,60.26
2023-03-17T07:08:04.646Z,60.75
2023-03-17T07:09:04.497Z,60.42
2023-03-17T07:10:04.608Z,72.51
2023-03-17T07:11:04.886Z,59.78
2023-03-17T07:12:04.444Z,63.97
2023-03-17T07:13:04.556Z,63.97
2023-03-17T07:14:05.060Z,63.16
2023-03-17T07:15:04.766Z,60.26
2023-03-17T07:16:04.483Z,60.59
2023-03-17T07:17:04.653Z,67.68
2023-03-17T07:18:04.406Z,68.64
2023-03-17T07:19:04.611Z,49.47
2023-03-17T07:20:04.418Z,47.70
2023-03-17T07:21:04.568Z,51.72
2023-03-17T07:22:04.468Z,55.43
2023-03-17T07:23:04.526Z,50.76
2023-03-17T07:24:04.581Z,46.57
2023-03-17T07:25:04.299Z,41.57
2023-03-17T07:26:04.476Z,46.08
2023-03-17T07:27:04.315Z,46.25
2023-03-17T07:28:04.495Z,53.01
2023-03-17T07:29:04.305Z,49.47
2023-03-17T07:30:04.449Z,56.88
2023-03-17T07:31:04.341Z,54.46
2023-03-17T07:32:04.485Z,56.56
2023-03-17T07:33:04.429Z,61.23
2023-03-17T07:34:04.985Z,54.30
2023-03-17T07:35:04.284Z,54.30
2023-03-17T07:36:04.496Z,53.98
2023-03-17T07:37:04.282Z,57.85
2023-03-17T07:38:04.516Z,51.72
2023-03-17T07:39:05.049Z,55.27
2023-03-17T07:40:04.556Z,57.52
2023-03-17T07:41:04.259Z,53.82
2023-03-17T07:42:04.083Z,66.23
2023-03-17T07:43:04.384Z,64.78
2023-03-17T07:44:04.173Z,68.64
2023-03-17T07:45:04.324Z,54.79
2023-03-17T07:46:06.289Z,63.16
2023-03-17T07:47:04.327Z,57.69
2023-03-17T07:48:04.136Z,63.81
2023-03-17T07:49:04.422Z,63.00
2023-03-17T07:50:04.515Z,53.01
2023-03-17T07:51:04.815Z,62.20
2023-03-17T07:52:04.223Z,64.29
2023-03-17T07:53:04.165Z,78.63
2023-03-17T07:54:04.247Z,69.93
2023-03-17T07:55:04.121Z,70.90
2023-03-17T07:56:04.133Z,74.93
2023-03-17T07:57:04.109Z,73.64
2023-03-17T07:58:04.143Z,74.93
2023-03-17T07:59:04.104Z,78.63
2023-03-17T08:00:04.286Z,94.91
2023-03-17T08:01:03.895Z,77.18
2023-03-17T08:02:04.104Z,78.63
2023-03-17T08:03:10.187Z,83.79
2023-03-17T08:04:04.606Z,76.54
2023-03-17T08:05:04.141Z,75.89
2023-03-17T08:06:04.023Z,75.25
2023-03-17T08:07:03.879Z,69.77
2023-03-17T08:08:04.000Z,57.69
2023-03-17T08:09:04.065Z,60.10
2023-03-17T08:10:04.882Z,60.10
2023-03-17T08:11:03.911Z,57.20
2023-03-17T08:12:03.774Z,56.07
2023-03-17T08:13:04.053Z,70.90
2023-03-17T08:14:04.837Z,45.44
2023-03-17T08:15:04.172Z,45.60
2023-03-17T08:16:03.984Z,40.28
2023-03-17T08:17:04.245Z,54.62
2023-03-17T08:18:04.114Z,50.27
2023-03-17T08:19:05.561Z,49.31
2023-03-17T08:20:03.833Z,51.08
2023-03-17T08:21:04.673Z,58.01
2023-03-17T08:22:03.853Z,61.71
2023-03-17T08:23:03.835Z,54.46
2023-03-17T08:24:03.847Z,59.46
2023-03-17T08:25:05.126Z,62.36
2023-03-17T08:26:03.849Z,63.49
2023-03-17T08:27:04.403Z,61.87
2023-03-17T08:28:04.096Z,66.06
2023-03-17T08:29:04.200Z,66.87
2023-03-17T08:30:03.522Z,66.39
2023-03-17T08:31:04.010Z,70.42
2023-03-17T08:32:04.645Z,66.71
2023-03-17T08:33:04.711Z,65.26
2023-03-17T08:34:03.782Z,68.48
2023-03-17T08:35:04.185Z,67.03
2023-03-17T08:36:04.373Z,60.91
2023-03-17T08:37:04.064Z,59.94
2023-03-17T08:38:04.749Z,59.46
2023-03-17T08:39:03.686Z,60.75
2023-03-17T08:40:03.836Z,59.62
2023-03-17T08:41:03.665Z,65.10
2023-03-17T08:42:03.419Z,56.56
2023-03-17T08:43:04.285Z,67.68
2023-03-17T08:44:03.487Z,68.64
2023-03-17T08:45:03.794Z,67.68
2023-03-17T08:46:03.577Z,69.45
2023-03-17T08:47:03.633Z,67.35
2023-03-17T08:48:03.434Z,77.99
2023-03-17T08:49:03.590Z,69.13
2023-03-17T08:50:03.654Z,67.68
2023-03-17T08:51:04.557Z,68.96
2023-03-17T08:52:03.516Z,74.77
2023-03-17T08:53:03.561Z,73.80
2023-03-17T08:54:03.392Z,69.77
2023-03-17T08:55:03.757Z,68.96
2023-03-17T08:56:03.557Z,67.68
2023-03-17T08:57:03.525Z,71.54
2023-03-17T08:58:03.491Z,65.42
2023-03-17T08:59:03.746Z,61.87
2023-03-17T09:00:03.595Z,63.00
2023-03-17T09:01:03.652Z,63.33
2023-03-17T09:02:03.588Z,68.80
2023-03-17T09:03:03.879Z,65.42
2023-03-17T09:04:03.478Z,69.45
2023-03-17T09:05:03.627Z,69.13
2023-03-17T09:06:03.635Z,70.25
2023-03-17T09:07:04.449Z,69.61
2023-03-17T09:08:03.458Z,68.80
2023-03-17T09:09:03.248Z,66.87
2023-03-17T09:10:03.516Z,67.19
2023-03-17T09:11:03.411Z,59.30
2023-03-17T09:12:03.474Z,61.55
2023-03-17T09:13:03.569Z,62.04
2023-03-17T09:14:03.515Z,61.23
2023-03-17T09:15:03.425Z,62.84
2023-03-17T09:16:03.575Z,59.78
2023-03-17T09:17:05.767Z,62.68
2023-03-17T09:18:03.548Z,67.03
2023-03-17T09:19:03.435Z,68.48
2023-03-17T09:20:03.298Z,68.00
2023-03-17T09:21:03.316Z,72.99
2023-03-17T09:22:03.237Z,70.74
2023-03-17T09:23:03.356Z,63.65
2023-03-17T09:24:03.216Z,67.03
2023-03-17T09:25:03.307Z,66.55
2023-03-17T09:26:03.277Z,71.54
2023-03-17T09:27:03.337Z,67.03
2023-03-17T09:28:03.223Z,68.48
2023-03-17T09:29:04.667Z,59.14
2023-03-17T09:30:03.101Z,62.36
2023-03-17T09:31:03.326Z,61.55
2023-03-17T09:32:03.147Z,66.71
2023-03-17T09:33:03.290Z,68.00
2023-03-17T09:34:03.496Z,72.19
2023-03-17T09:35:03.306Z,71.38
2023-03-17T09:36:03.252Z,71.87
2023-03-17T09:37:02.996Z,72.35
2023-03-17T09:38:03.076Z,74.28
2023-03-17T09:39:03.173Z,72.35
2023-03-17T09:40:03.096Z,73.15
2023-03-17T09:41:03.636Z,62.68
2023-03-17T09:42:03.439Z,65.10
2023-03-17T09:43:03.052Z,65.26
2023-03-17T09:44:03.131Z,56.88
2023-03-17T09:45:02.973Z,58.65
2023-03-17T09:46:02.756Z,58.01
2023-03-17T09:47:03.173Z,54.95
2023-03-17T09:48:03.028Z,54.95
2023-03-17T09:49:02.984Z,48.66
2023-03-17T09:50:03.194Z,48.18
2023-03-17T09:51:03.032Z,67.51
2023-03-17T09:52:02.875Z,64.45
2023-03-17T09:53:04.079Z,67.51
2023-03-17T09:54:02.837Z,70.58
2023-03-17T09:55:02.929Z,65.58
2023-03-17T09:56:02.947Z,66.23
2023-03-17T09:57:03.196Z,68.80
2023-03-17T09:58:02.766Z,53.33
2023-03-17T09:59:02.914Z,52.85
2023-03-17T10:00:02.908Z,51.72
2023-03-17T10:01:03.087Z,47.37
2023-03-17T10:02:02.927Z,52.85
2023-03-17T10:03:02.835Z,70.58
2023-03-17T10:04:02.783Z,69.93
2023-03-17T10:05:03.126Z,72.19
2023-03-17T10:06:02.815Z,73.80
2023-03-17T10:07:02.746Z,71.87
2023-03-17T10:08:03.054Z,73.15
2023-03-17T10:09:02.641Z,70.74
2023-03-17T10:10:02.889Z,56.56
2023-03-17T10:11:02.770Z,56.24
2023-03-17T10:12:02.806Z,72.83
2023-03-17T10:13:02.524Z,57.20
2023-03-17T10:14:02.663Z,60.42
2023-03-17T10:15:02.605Z,57.52
2023-03-17T10:16:02.547Z,73.80
2023-03-17T10:17:02.831Z,56.88
2023-03-17T10:18:02.714Z,57.85
2023-03-17T10:19:02.750Z,72.51
2023-03-17T10:20:02.758Z,70.42
2023-03-17T10:21:02.697Z,61.39
2023-03-17T10:22:03.042Z,64.94
2023-03-17T10:23:02.519Z,70.25
2023-03-17T10:24:02.473Z,59.94
2023-03-17T10:25:03.867Z,55.59
2023-03-17T10:26:02.554Z,60.42
2023-03-17T10:27:02.664Z,70.90
2023-03-17T10:28:02.486Z,60.75
2023-03-17T10:29:02.651Z,60.10
2023-03-17T10:30:02.495Z,58.81
2023-03-17T10:31:02.734Z,59.78
2023-03-17T10:32:02.724Z,60.91
2023-03-17T10:33:02.388Z,92.49
2023-03-17T10:34:02.463Z,67.68
2023-03-17T10:35:02.631Z,67.51
2023-03-17T10:36:02.546Z,68.80
2023-03-17T10:37:02.710Z,66.23
2023-03-17T10:38:14.075Z,73.48
2023-03-17T10:39:02.326Z,71.22
2023-03-17T10:40:02.453Z,68.00
2023-03-17T10:41:02.240Z,64.29
2023-03-17T10:42:02.574Z,73.32
2023-03-17T10:43:02.369Z,71.06
2023-03-17T10:44:02.147Z,65.74
2023-03-17T10:45:02.281Z,72.19
2023-03-17T10:46:02.511Z,64.45
2023-03-17T10:47:02.431Z,62.36
2023-03-17T10:48:02.396Z,59.30
2023-03-17T10:49:02.407Z,59.78
2023-03-17T10:50:02.485Z,63.81
2023-03-17T10:51:02.386Z,65.26
2023-03-17T10:52:02.116Z,71.06
2023-03-17T10:53:02.676Z,71.22
2023-03-17T10:54:02.137Z,70.90
2023-03-17T10:55:02.284Z,74.44
2023-03-17T10:56:02.175Z,72.19
2023-03-17T10:57:02.234Z,72.35
2023-03-17T10:58:02.420Z,72.67
2023-03-17T10:59:02.696Z,77.67
2023-03-17T11:00:02.746Z,77.34
2023-03-17T11:01:02.877Z,76.54
2023-03-17T11:02:04.227Z,77.99
2023-03-17T11:03:01.995Z,70.74
2023-03-17T11:04:02.223Z,74.77
2023-03-17T11:05:02.026Z,61.07
2023-03-17T11:06:02.228Z,64.13
2023-03-17T11:07:02.078Z,64.45
2023-03-17T11:08:02.751Z,74.28
2023-03-17T11:09:02.059Z,63.81
2023-03-17T11:10:02.685Z,68.48
2023-03-17T11:11:02.051Z,68.64
2023-03-17T11:12:02.176Z,74.93
2023-03-17T11:13:02.239Z,66.87
2023-03-17T11:14:02.514Z,74.93
2023-03-17T11:15:02.506Z,74.44
2023-03-17T11:16:01.838Z,57.04
2023-03-17T11:17:02.136Z,58.49
2023-03-17T11:18:01.897Z,56.88
2023-03-17T11:19:02.027Z,63.49
2023-03-17T11:20:01.896Z,62.04
2023-03-17T11:21:02.361Z,68.16
2023-03-17T11:22:02.105Z,65.74
2023-03-17T11:23:02.182Z,69.45
2023-03-17T11:24:01.845Z,55.91
2023-03-17T11:25:01.941Z,67.35
2023-03-17T11:26:02.237Z,54.62
2023-03-17T11:27:02.043Z,54.79
2023-03-17T11:28:01.943Z,62.20
2023-03-17T11:29:01.985Z,62.20
2023-03-17T11:30:02.003Z,67.51
2023-03-17T11:31:02.072Z,64.78
2023-03-17T11:32:01.943Z,67.68
2023-03-17T11:33:01.867Z,70.09
2023-03-17T11:34:01.843Z,49.47
2023-03-17T11:35:01.743Z,48.02
2023-03-17T11:36:02.066Z,48.66
2023-03-17T11:37:02.074Z,51.72
2023-03-17T11:38:01.961Z,53.50
2023-03-17T11:39:01.703Z,63.49
2023-03-17T11:40:01.870Z,59.62
2023-03-17T11:41:02.073Z,64.13
2023-03-17T11:42:02.053Z,67.68
2023-03-17T11:43:01.734Z,67.35
2023-03-17T11:44:01.883Z,67.35
2023-03-17T11:45:01.722Z,67.84
2023-03-17T11:46:01.973Z,70.42
2023-03-17T11:47:01.773Z,70.58
2023-03-17T11:48:01.623Z,71.87
2023-03-17T11:49:01.691Z,75.57
2023-03-17T11:50:01.535Z,51.88
2023-03-17T11:51:01.714Z,57.85
2023-03-17T11:52:01.502Z,45.92
2023-03-17T11:53:01.904Z,52.37
2023-03-17T11:54:01.542Z,45.76
2023-03-17T11:55:02.362Z,45.12
2023-03-17T11:56:01.517Z,44.96
2023-03-17T11:57:01.666Z,44.96
2023-03-17T11:58:01.563Z,58.49
2023-03-17T11:59:01.698Z,45.60
2023-03-17T12:00:01.571Z,45.44
2023-03-17T12:01:01.637Z,47.05
2023-03-17T12:02:01.455Z,48.34
2023-03-17T12:03:01.525Z,45.92
2023-03-17T12:04:02.145Z,45.44
2023-03-17T12:05:01.850Z,48.34
2023-03-17T12:06:01.906Z,51.40
2023-03-17T12:07:01.804Z,49.63
2023-03-17T12:08:01.599Z,50.92
2023-03-17T12:09:01.457Z,46.08
2023-03-17T12:10:01.499Z,48.34
2023-03-17T12:11:01.497Z,55.75
2023-03-17T12:12:01.548Z,49.63
2023-03-17T12:13:01.366Z,48.50
2023-03-17T12:14:01.531Z,45.44
2023-03-17T12:15:01.647Z,45.44
2023-03-17T12:16:01.591Z,45.44
2023-03-17T12:17:01.413Z,46.89
2023-03-17T12:18:01.917Z,46.25
2023-03-17T12:19:01.645Z,48.18
2023-03-17T12:20:01.624Z,64.94
2023-03-17T12:21:01.521Z,48.34
2023-03-17T12:22:01.435Z,46.89
2023-03-17T12:23:01.355Z,46.08
2023-03-17T12:24:02.557Z,46.89
2023-03-17T12:25:01.388Z,53.98
2023-03-17T12:26:01.386Z,49.95
2023-03-17T12:27:01.474Z,46.57
2023-03-17T12:28:01.236Z,48.98
2023-03-17T12:29:01.398Z,45.76
2023-03-17T12:30:01.347Z,54.46
2023-03-17T12:31:01.407Z,48.66
2023-03-17T12:32:01.305Z,48.50
2023-03-17T12:33:01.267Z,50.60
2023-03-17T12:34:01.195Z,64.94
2023-03-17T12:35:01.348Z,67.84
2023-03-17T12:36:02.015Z,45.92
2023-03-17T12:37:01.057Z,48.18
2023-03-17T12:38:01.282Z,53.50
2023-03-17T12:39:01.055Z,49.95
2023-03-17T12:40:01.447Z,47.05
2023-03-17T12:41:01.205Z,48.50
2023-03-17T12:42:01.217Z,47.86
2023-03-17T12:43:01.067Z,45.92
2023-03-17T12:44:01.287Z,49.15
2023-03-17T12:45:01.208Z,46.89
2023-03-17T12:46:01.176Z,58.97
2023-03-17T12:47:00.999Z,46.73
2023-03-17T12:48:01.105Z,44.96
2023-03-17T12:49:01.035Z,47.05
2023-03-17T12:50:01.050Z,46.73
2023-03-17T12:51:01.094Z,45.60
2023-03-17T12:52:00.955Z,48.34